sensor_id;sensor_type;location;lat;lon;timestamp;P1;durP1;ratioP1;P2;durP2;ratioP2
52015;SDS011;38032;53.326;6.472;2023-04-15T00:00:38;13.18;;;6.65;;
52015;SDS011;38032;53.326;6.472;2023-04-15T00:03:04;12.02;;;7.05;;
52015;SDS011;38032;53.326;6.472;2023-04-15T00:05:30;14.27;;;7.32;;
52015;SDS011;38032;53.326;6.472;2023-04-15T00:07:56;12.65;;;6.93;;
52015;SDS011;38032;53.326;6.472;2023-04-15T00:10:23;12.38;;;7.05;;
52015;SDS011;38032;53.326;6.472;2023-04-15T00:12:49;10.38;;;6.70;;
52015;SDS011;38032;53.326;6.472;2023-04-15T00:15:16;12.52;;;7.38;;
52015;SDS011;38032;53.326;6.472;2023-04-15T00:17:42;15.00;;;7.93;;
52015;SDS011;38032;53.326;6.472;2023-04-15T00:20:08;13.10;;;8.75;;
52015;SDS011;38032;53.326;6.472;2023-04-15T00:22:34;16.33;;;8.13;;
52015;SDS011;38032;53.326;6.472;2023-04-15T00:25:00;15.07;;;8.23;;
52015;SDS011;38032;53.326;6.472;2023-04-15T00:27:27;14.65;;;8.73;;
52015;SDS011;38032;53.326;6.472;2023-04-15T00:29:53;13.63;;;9.00;;
52015;SDS011;38032;53.326;6.472;2023-04-15T00:32:20;14.15;;;8.90;;
52015;SDS011;38032;53.326;6.472;2023-04-15T00:34:46;14.98;;;8.93;;
52015;SDS011;38032;53.326;6.472;2023-04-15T00:37:12;16.83;;;9.23;;
52015;SDS011;38032;53.326;6.472;2023-04-15T00:39:38;14.38;;;9.48;;
52015;SDS011;38032;53.326;6.472;2023-04-15T00:42:04;15.70;;;9.77;;
52015;SDS011;38032;53.326;6.472;2023-04-15T00:44:30;15.32;;;9.52;;
52015;SDS011;38032;53.326;6.472;2023-04-15T00:46:57;15.75;;;9.68;;
52015;SDS011;38032;53.326;6.472;2023-04-15T00:49:24;16.33;;;9.65;;
52015;SDS011;38032;53.326;6.472;2023-04-15T00:51:51;17.45;;;9.45;;
52015;SDS011;38032;53.326;6.472;2023-04-15T00:54:17;17.33;;;10.00;;
52015;SDS011;38032;53.326;6.472;2023-04-15T00:56:43;14.65;;;9.75;;
52015;SDS011;38032;53.326;6.472;2023-04-15T00:59:09;17.45;;;9.95;;
52015;SDS011;38032;53.326;6.472;2023-04-15T01:01:35;18.05;;;10.35;;
52015;SDS011;38032;53.326;6.472;2023-04-15T01:04:02;17.48;;;10.45;;
52015;SDS011;38032;53.326;6.472;2023-04-15T01:06:28;15.63;;;10.05;;
52015;SDS011;38032;53.326;6.472;2023-04-15T01:08:56;15.98;;;10.30;;
52015;SDS011;38032;53.326;6.472;2023-04-15T01:11:23;14.75;;;9.93;;
52015;SDS011;38032;53.326;6.472;2023-04-15T01:13:50;18.05;;;10.35;;
52015;SDS011;38032;53.326;6.472;2023-04-15T01:16:17;15.02;;;10.27;;
52015;SDS011;38032;53.326;6.472;2023-04-15T01:18:43;16.27;;;9.88;;
52015;SDS011;38032;53.326;6.472;2023-04-15T01:21:10;15.90;;;9.75;;
52015;SDS011;38032;53.326;6.472;2023-04-15T01:23:36;14.07;;;9.75;;
52015;SDS011;38032;53.326;6.472;2023-04-15T01:26:03;16.38;;;9.88;;
52015;SDS011;38032;53.326;6.472;2023-04-15T01:28:31;14.63;;;9.52;;
52015;SDS011;38032;53.326;6.472;2023-04-15T01:31:05;15.63;;;10.15;;
52015;SDS011;38032;53.326;6.472;2023-04-15T01:33:33;15.50;;;9.85;;
52015;SDS011;38032;53.326;6.472;2023-04-15T01:35:59;17.83;;;10.07;;
52015;SDS011;38032;53.326;6.472;2023-04-15T01:38:26;15.45;;;9.57;;
52015;SDS011;38032;53.326;6.472;2023-04-15T01:40:52;15.93;;;10.20;;
52015;SDS011;38032;53.326;6.472;2023-04-15T01:43:18;14.25;;;9.75;;
52015;SDS011;38032;53.326;6.472;2023-04-15T01:45:44;17.27;;;9.75;;
52015;SDS011;38032;53.326;6.472;2023-04-15T01:48:11;14.55;;;9.10;;
52015;SDS011;38032;53.326;6.472;2023-04-15T01:50:37;14.25;;;9.57;;
52015;SDS011;38032;53.326;6.472;2023-04-15T01:53:03;14.27;;;9.32;;
52015;SDS011;38032;53.326;6.472;2023-04-15T01:55:29;12.32;;;7.93;;
52015;SDS011;38032;53.326;6.472;2023-04-15T01:57:55;13.63;;;9.05;;
52015;SDS011;38032;53.326;6.472;2023-04-15T02:00:21;13.63;;;8.90;;
52015;SDS011;38032;53.326;6.472;2023-04-15T02:02:48;16.20;;;9.82;;
52015;SDS011;38032;53.326;6.472;2023-04-15T02:05:14;14.25;;;9.00;;
52015;SDS011;38032;53.326;6.472;2023-04-15T02:07:41;14.50;;;9.77;;
52015;SDS011;38032;53.326;6.472;2023-04-15T02:10:07;13.60;;;9.20;;
52015;SDS011;38032;53.326;6.472;2023-04-15T02:12:34;13.30;;;9.38;;
52015;SDS011;38032;53.326;6.472;2023-04-15T02:15:00;17.65;;;10.30;;
52015;SDS011;38032;53.326;6.472;2023-04-15T02:17:26;15.70;;;10.65;;
52015;SDS011;38032;53.326;6.472;2023-04-15T02:19:54;17.75;;;10.57;;
52015;SDS011;38032;53.326;6.472;2023-04-15T02:22:21;17.30;;;10.32;;
52015;SDS011;38032;53.326;6.472;2023-04-15T02:24:46;17.60;;;10.32;;
52015;SDS011;38032;53.326;6.472;2023-04-15T02:27:21;14.43;;;10.02;;
52015;SDS011;38032;53.326;6.472;2023-04-15T02:30:08;14.57;;;9.60;;
52015;SDS011;38032;53.326;6.472;2023-04-15T02:32:34;15.73;;;10.13;;
52015;SDS011;38032;53.326;6.472;2023-04-15T02:35:03;17.92;;;10.25;;
52015;SDS011;38032;53.326;6.472;2023-04-15T02:37:31;18.13;;;10.13;;
52015;SDS011;38032;53.326;6.472;2023-04-15T02:40:00;16.77;;;9.98;;
52015;SDS011;38032;53.326;6.472;2023-04-15T02:42:26;15.75;;;10.43;;
52015;SDS011;38032;53.326;6.472;2023-04-15T02:44:54;15.35;;;9.85;;
52015;SDS011;38032;53.326;6.472;2023-04-15T02:47:20;16.00;;;10.73;;
52015;SDS011;38032;53.326;6.472;2023-04-15T02:49:47;18.02;;;10.63;;
52015;SDS011;38032;53.326;6.472;2023-04-15T02:52:13;17.77;;;11.45;;
52015;SDS011;38032;53.326;6.472;2023-04-15T02:54:39;17.77;;;10.65;;
52015;SDS011;38032;53.326;6.472;2023-04-15T02:57:05;14.70;;;9.80;;
52015;SDS011;38032;53.326;6.472;2023-04-15T02:59:31;15.27;;;10.05;;
52015;SDS011;38032;53.326;6.472;2023-04-15T03:01:57;15.57;;;10.30;;
52015;SDS011;38032;53.326;6.472;2023-04-15T03:04:31;17.20;;;10.40;;
52015;SDS011;38032;53.326;6.472;2023-04-15T03:06:56;16.25;;;10.48;;
52015;SDS011;38032;53.326;6.472;2023-04-15T03:09:22;17.08;;;10.77;;
52015;SDS011;38032;53.326;6.472;2023-04-15T03:11:48;16.42;;;10.32;;
52015;SDS011;38032;53.326;6.472;2023-04-15T03:14:16;18.40;;;11.43;;
52015;SDS011;38032;53.326;6.472;2023-04-15T03:16:42;17.05;;;11.10;;
52015;SDS011;38032;53.326;6.472;2023-04-15T03:19:08;18.92;;;11.88;;
52015;SDS011;38032;53.326;6.472;2023-04-15T03:21:33;16.15;;;10.32;;
52015;SDS011;38032;53.326;6.472;2023-04-15T03:23:59;19.20;;;11.75;;
52015;SDS011;38032;53.326;6.472;2023-04-15T03:26:26;17.95;;;11.57;;
52015;SDS011;38032;53.326;6.472;2023-04-15T03:28:53;19.02;;;11.85;;
52015;SDS011;38032;53.326;6.472;2023-04-15T03:31:19;18.40;;;11.55;;
52015;SDS011;38032;53.326;6.472;2023-04-15T03:33:45;18.88;;;12.27;;
52015;SDS011;38032;53.326;6.472;2023-04-15T03:36:11;19.98;;;11.85;;
52015;SDS011;38032;53.326;6.472;2023-04-15T03:38:37;19.27;;;12.40;;
52015;SDS011;38032;53.326;6.472;2023-04-15T03:41:03;21.25;;;12.68;;
52015;SDS011;38032;53.326;6.472;2023-04-15T03:43:29;21.23;;;12.82;;
52015;SDS011;38032;53.326;6.472;2023-04-15T03:45:55;20.75;;;13.02;;
52015;SDS011;38032;53.326;6.472;2023-04-15T03:48:21;19.00;;;12.15;;
52015;SDS011;38032;53.326;6.472;2023-04-15T03:50:47;21.42;;;13.48;;
52015;SDS011;38032;53.326;6.472;2023-04-15T03:53:13;21.17;;;13.07;;
52015;SDS011;38032;53.326;6.472;2023-04-15T03:55:40;24.20;;;13.75;;
52015;SDS011;38032;53.326;6.472;2023-04-15T03:58:06;23.95;;;14.55;;
52015;SDS011;38032;53.326;6.472;2023-04-15T04:00:31;24.38;;;14.50;;
52015;SDS011;38032;53.326;6.472;2023-04-15T04:02:57;23.23;;;14.15;;
52015;SDS011;38032;53.326;6.472;2023-04-15T04:05:23;21.73;;;13.75;;
52015;SDS011;38032;53.326;6.472;2023-04-15T04:07:49;21.13;;;12.38;;
52015;SDS011;38032;53.326;6.472;2023-04-15T04:10:15;20.33;;;12.38;;
52015;SDS011;38032;53.326;6.472;2023-04-15T04:12:41;20.25;;;13.10;;
52015;SDS011;38032;53.326;6.472;2023-04-15T04:15:07;22.23;;;13.43;;
52015;SDS011;38032;53.326;6.472;2023-04-15T04:17:33;22.45;;;13.57;;
52015;SDS011;38032;53.326;6.472;2023-04-15T04:19:59;19.77;;;12.63;;
52015;SDS011;38032;53.326;6.472;2023-04-15T04:22:25;20.80;;;12.40;;
52015;SDS011;38032;53.326;6.472;2023-04-15T04:24:50;20.67;;;12.10;;
52015;SDS011;38032;53.326;6.472;2023-04-15T04:27:16;19.15;;;11.20;;
52015;SDS011;38032;53.326;6.472;2023-04-15T04:29:42;19.52;;;11.55;;
52015;SDS011;38032;53.326;6.472;2023-04-15T04:32:08;20.23;;;11.30;;
52015;SDS011;38032;53.326;6.472;2023-04-15T04:34:34;16.73;;;11.10;;
52015;SDS011;38032;53.326;6.472;2023-04-15T04:37:00;15.75;;;10.68;;
52015;SDS011;38032;53.326;6.472;2023-04-15T04:39:26;14.48;;;9.43;;
52015;SDS011;38032;53.326;6.472;2023-04-15T04:41:52;15.85;;;10.10;;
52015;SDS011;38032;53.326;6.472;2023-04-15T04:44:18;15.10;;;9.52;;
52015;SDS011;38032;53.326;6.472;2023-04-15T04:46:44;16.63;;;10.85;;
52015;SDS011;38032;53.326;6.472;2023-04-15T04:49:09;17.85;;;10.20;;
52015;SDS011;38032;53.326;6.472;2023-04-15T04:51:35;14.40;;;9.95;;
52015;SDS011;38032;53.326;6.472;2023-04-15T04:54:01;15.18;;;10.80;;
52015;SDS011;38032;53.326;6.472;2023-04-15T04:56:28;15.90;;;10.85;;
52015;SDS011;38032;53.326;6.472;2023-04-15T04:58:54;16.90;;;9.98;;
52015;SDS011;38032;53.326;6.472;2023-04-15T05:01:20;16.38;;;8.93;;
52015;SDS011;38032;53.326;6.472;2023-04-15T05:03:46;14.50;;;9.90;;
52015;SDS011;38032;53.326;6.472;2023-04-15T05:06:12;15.38;;;9.05;;
52015;SDS011;38032;53.326;6.472;2023-04-15T05:08:38;14.35;;;9.82;;
52015;SDS011;38032;53.326;6.472;2023-04-15T05:11:05;12.57;;;9.05;;
52015;SDS011;38032;53.326;6.472;2023-04-15T05:13:31;15.35;;;9.45;;
52015;SDS011;38032;53.326;6.472;2023-04-15T05:15:57;13.40;;;9.02;;
52015;SDS011;38032;53.326;6.472;2023-04-15T05:18:23;15.18;;;9.95;;
52015;SDS011;38032;53.326;6.472;2023-04-15T05:20:49;14.48;;;9.05;;
52015;SDS011;38032;53.326;6.472;2023-04-15T05:23:15;17.08;;;10.38;;
52015;SDS011;38032;53.326;6.472;2023-04-15T05:25:41;17.25;;;11.15;;
52015;SDS011;38032;53.326;6.472;2023-04-15T05:28:07;16.17;;;10.27;;
52015;SDS011;38032;53.326;6.472;2023-04-15T05:30:33;14.25;;;9.18;;
52015;SDS011;38032;53.326;6.472;2023-04-15T05:32:59;16.58;;;10.88;;
52015;SDS011;38032;53.326;6.472;2023-04-15T05:35:25;16.35;;;10.65;;
52015;SDS011;38032;53.326;6.472;2023-04-15T05:37:53;18.60;;;11.02;;
52015;SDS011;38032;53.326;6.472;2023-04-15T05:40:18;17.38;;;11.07;;
52015;SDS011;38032;53.326;6.472;2023-04-15T05:42:44;15.02;;;8.93;;
52015;SDS011;38032;53.326;6.472;2023-04-15T05:45:10;17.02;;;10.07;;
52015;SDS011;38032;53.326;6.472;2023-04-15T05:47:36;16.35;;;10.32;;
52015;SDS011;38032;53.326;6.472;2023-04-15T05:50:02;14.52;;;9.85;;
52015;SDS011;38032;53.326;6.472;2023-04-15T05:52:29;14.77;;;10.45;;
52015;SDS011;38032;53.326;6.472;2023-04-15T05:54:55;16.58;;;10.45;;
52015;SDS011;38032;53.326;6.472;2023-04-15T05:57:21;11.38;;;7.65;;
52015;SDS011;38032;53.326;6.472;2023-04-15T05:59:47;16.20;;;9.60;;
52015;SDS011;38032;53.326;6.472;2023-04-15T06:02:15;12.93;;;8.00;;
52015;SDS011;38032;53.326;6.472;2023-04-15T06:04:41;13.68;;;8.48;;
52015;SDS011;38032;53.326;6.472;2023-04-15T06:07:07;14.38;;;8.43;;
52015;SDS011;38032;53.326;6.472;2023-04-15T06:09:33;13.90;;;7.82;;
52015;SDS011;38032;53.326;6.472;2023-04-15T06:12:00;10.35;;;6.63;;
52015;SDS011;38032;53.326;6.472;2023-04-15T06:14:26;11.82;;;8.07;;
52015;SDS011;38032;53.326;6.472;2023-04-15T06:16:52;12.07;;;7.80;;
52015;SDS011;38032;53.326;6.472;2023-04-15T06:19:18;12.07;;;8.27;;
52015;SDS011;38032;53.326;6.472;2023-04-15T06:21:44;13.15;;;8.30;;
52015;SDS011;38032;53.326;6.472;2023-04-15T06:24:10;16.73;;;9.20;;
52015;SDS011;38032;53.326;6.472;2023-04-15T06:26:36;11.93;;;7.45;;
52015;SDS011;38032;53.326;6.472;2023-04-15T06:29:02;18.73;;;10.30;;
52015;SDS011;38032;53.326;6.472;2023-04-15T06:31:28;14.35;;;8.52;;
52015;SDS011;38032;53.326;6.472;2023-04-15T06:33:55;17.27;;;9.95;;
52015;SDS011;38032;53.326;6.472;2023-04-15T06:36:21;13.30;;;7.95;;
52015;SDS011;38032;53.326;6.472;2023-04-15T06:38:46;12.57;;;7.78;;
52015;SDS011;38032;53.326;6.472;2023-04-15T06:41:12;12.20;;;7.50;;
52015;SDS011;38032;53.326;6.472;2023-04-15T06:43:38;11.75;;;7.15;;
52015;SDS011;38032;53.326;6.472;2023-04-15T06:46:04;12.88;;;7.47;;
52015;SDS011;38032;53.326;6.472;2023-04-15T06:48:30;9.55;;;6.05;;
52015;SDS011;38032;53.326;6.472;2023-04-15T06:50:56;9.45;;;6.65;;
52015;SDS011;38032;53.326;6.472;2023-04-15T06:53:24;9.18;;;6.47;;
52015;SDS011;38032;53.326;6.472;2023-04-15T06:55:52;10.80;;;6.97;;
52015;SDS011;38032;53.326;6.472;2023-04-15T06:58:18;9.60;;;6.45;;
52015;SDS011;38032;53.326;6.472;2023-04-15T07:00:43;8.65;;;6.43;;
52015;SDS011;38032;53.326;6.472;2023-04-15T07:03:10;10.48;;;6.05;;
52015;SDS011;38032;53.326;6.472;2023-04-15T07:05:37;11.65;;;6.32;;
52015;SDS011;38032;53.326;6.472;2023-04-15T07:08:04;8.40;;;5.18;;
52015;SDS011;38032;53.326;6.472;2023-04-15T07:10:31;8.38;;;5.38;;
52015;SDS011;38032;53.326;6.472;2023-04-15T07:12:58;9.90;;;6.13;;
52015;SDS011;38032;53.326;6.472;2023-04-15T07:15:25;9.82;;;6.30;;
52015;SDS011;38032;53.326;6.472;2023-04-15T07:17:51;9.65;;;5.43;;
52015;SDS011;38032;53.326;6.472;2023-04-15T07:20:16;11.57;;;6.38;;
52015;SDS011;38032;53.326;6.472;2023-04-15T07:22:43;9.82;;;5.55;;
52015;SDS011;38032;53.326;6.472;2023-04-15T07:25:09;10.50;;;5.78;;
52015;SDS011;38032;53.326;6.472;2023-04-15T07:27:35;10.75;;;7.20;;
52015;SDS011;38032;53.326;6.472;2023-04-15T07:30:01;9.60;;;6.43;;
52015;SDS011;38032;53.326;6.472;2023-04-15T07:32:27;11.43;;;7.00;;
52015;SDS011;38032;53.326;6.472;2023-04-15T07:34:53;10.55;;;6.72;;
52015;SDS011;38032;53.326;6.472;2023-04-15T07:37:19;10.32;;;6.45;;
52015;SDS011;38032;53.326;6.472;2023-04-15T07:39:45;9.25;;;5.75;;
52015;SDS011;38032;53.326;6.472;2023-04-15T07:42:11;8.98;;;5.93;;
52015;SDS011;38032;53.326;6.472;2023-04-15T07:44:37;10.07;;;6.78;;
52015;SDS011;38032;53.326;6.472;2023-04-15T07:47:03;10.88;;;5.97;;
52015;SDS011;38032;53.326;6.472;2023-04-15T07:49:28;9.10;;;6.20;;
52015;SDS011;38032;53.326;6.472;2023-04-15T07:51:54;10.85;;;7.18;;
52015;SDS011;38032;53.326;6.472;2023-04-15T07:54:21;10.52;;;6.22;;
52015;SDS011;38032;53.326;6.472;2023-04-15T07:56:47;9.20;;;5.93;;
52015;SDS011;38032;53.326;6.472;2023-04-15T07:59:14;9.75;;;5.85;;
52015;SDS011;38032;53.326;6.472;2023-04-15T08:01:42;7.93;;;5.70;;
52015;SDS011;38032;53.326;6.472;2023-04-15T08:04:08;9.82;;;5.78;;
52015;SDS011;38032;53.326;6.472;2023-04-15T08:06:34;12.02;;;5.57;;
52015;SDS011;38032;53.326;6.472;2023-04-15T08:09:01;8.80;;;5.70;;
52015;SDS011;38032;53.326;6.472;2023-04-15T08:11:27;8.82;;;5.40;;
52015;SDS011;38032;53.326;6.472;2023-04-15T08:13:53;9.40;;;5.40;;
52015;SDS011;38032;53.326;6.472;2023-04-15T08:16:19;8.73;;;5.00;;
52015;SDS011;38032;53.326;6.472;2023-04-15T08:18:48;10.20;;;4.90;;
52015;SDS011;38032;53.326;6.472;2023-04-15T08:21:16;8.55;;;4.88;;
52015;SDS011;38032;53.326;6.472;2023-04-15T08:23:43;8.80;;;4.40;;
52015;SDS011;38032;53.326;6.472;2023-04-15T08:26:11;7.43;;;4.75;;
52015;SDS011;38032;53.326;6.472;2023-04-15T08:28:38;5.47;;;3.58;;
52015;SDS011;38032;53.326;6.472;2023-04-15T08:31:04;6.88;;;3.53;;
52015;SDS011;38032;53.326;6.472;2023-04-15T08:33:30;7.35;;;3.47;;
52015;SDS011;38032;53.326;6.472;2023-04-15T08:35:56;7.40;;;3.97;;
52015;SDS011;38032;53.326;6.472;2023-04-15T08:38:22;6.03;;;3.65;;
52015;SDS011;38032;53.326;6.472;2023-04-15T08:40:48;8.50;;;4.20;;
52015;SDS011;38032;53.326;6.472;2023-04-15T08:43:21;7.43;;;4.05;;
52015;SDS011;38032;53.326;6.472;2023-04-15T08:45:51;7.45;;;4.38;;
52015;SDS011;38032;53.326;6.472;2023-04-15T08:48:18;7.10;;;4.28;;
52015;SDS011;38032;53.326;6.472;2023-04-15T08:50:44;10.27;;;4.78;;
52015;SDS011;38032;53.326;6.472;2023-04-15T08:53:11;5.70;;;3.90;;
52015;SDS011;38032;53.326;6.472;2023-04-15T08:55:44;7.32;;;3.90;;
52015;SDS011;38032;53.326;6.472;2023-04-15T08:58:12;6.90;;;3.78;;
52015;SDS011;38032;53.326;6.472;2023-04-15T09:00:39;7.72;;;3.72;;
52015;SDS011;38032;53.326;6.472;2023-04-15T09:03:05;5.97;;;3.10;;
52015;SDS011;38032;53.326;6.472;2023-04-15T09:05:33;7.88;;;2.60;;
52015;SDS011;38032;53.326;6.472;2023-04-15T09:08:00;5.70;;;2.90;;
52015;SDS011;38032;53.326;6.472;2023-04-15T09:10:27;5.60;;;2.80;;
52015;SDS011;38032;53.326;6.472;2023-04-15T09:12:53;4.57;;;2.72;;
52015;SDS011;38032;53.326;6.472;2023-04-15T09:15:19;5.40;;;2.60;;
52015;SDS011;38032;53.326;6.472;2023-04-15T09:17:46;4.55;;;2.53;;
52015;SDS011;38032;53.326;6.472;2023-04-15T09:20:13;4.10;;;2.30;;
52015;SDS011;38032;53.326;6.472;2023-04-15T09:22:41;5.35;;;2.50;;
52015;SDS011;38032;53.326;6.472;2023-04-15T09:27:47;3.60;;;1.95;;
52015;SDS011;38032;53.326;6.472;2023-04-15T09:30:14;4.90;;;2.20;;
52015;SDS011;38032;53.326;6.472;2023-04-15T09:35:16;3.78;;;2.10;;
52015;SDS011;38032;53.326;6.472;2023-04-15T09:37:43;2.97;;;1.92;;
52015;SDS011;38032;53.326;6.472;2023-04-15T09:40:09;3.08;;;1.90;;
52015;SDS011;38032;53.326;6.472;2023-04-15T09:42:35;3.33;;;1.90;;
52015;SDS011;38032;53.326;6.472;2023-04-15T09:45:14;3.60;;;1.80;;
52015;SDS011;38032;53.326;6.472;2023-04-15T09:47:39;4.65;;;1.85;;
52015;SDS011;38032;53.326;6.472;2023-04-15T09:50:05;3.08;;;1.75;;
52015;SDS011;38032;53.326;6.472;2023-04-15T09:52:32;3.78;;;1.90;;
52015;SDS011;38032;53.326;6.472;2023-04-15T09:54:58;4.50;;;2.20;;
52015;SDS011;38032;53.326;6.472;2023-04-15T09:57:31;3.65;;;2.10;;
52015;SDS011;38032;53.326;6.472;2023-04-15T10:00:01;4.53;;;2.40;;
52015;SDS011;38032;53.326;6.472;2023-04-15T10:02:29;3.58;;;2.10;;
52015;SDS011;38032;53.326;6.472;2023-04-15T10:04:56;3.95;;;1.98;;
52015;SDS011;38032;53.326;6.472;2023-04-15T10:07:23;3.88;;;1.95;;
52015;SDS011;38032;53.326;6.472;2023-04-15T10:09:50;2.95;;;1.80;;
52015;SDS011;38032;53.326;6.472;2023-04-15T10:12:17;5.60;;;2.05;;
52015;SDS011;38032;53.326;6.472;2023-04-15T10:14:46;3.83;;;2.03;;
52015;SDS011;38032;53.326;6.472;2023-04-15T10:17:27;4.43;;;1.70;;
52015;SDS011;38032;53.326;6.472;2023-04-15T10:20:02;3.40;;;2.00;;
52015;SDS011;38032;53.326;6.472;2023-04-15T10:22:29;5.88;;;2.10;;
52015;SDS011;38032;53.326;6.472;2023-04-15T10:24:57;4.90;;;2.42;;
52015;SDS011;38032;53.326;6.472;2023-04-15T10:27:25;4.55;;;2.15;;
52015;SDS011;38032;53.326;6.472;2023-04-15T10:29:52;6.85;;;2.20;;
52015;SDS011;38032;53.326;6.472;2023-04-15T10:32:19;4.60;;;2.40;;
52015;SDS011;38032;53.326;6.472;2023-04-15T10:34:47;4.03;;;2.10;;
52015;SDS011;38032;53.326;6.472;2023-04-15T10:37:19;4.95;;;2.35;;
52015;SDS011;38032;53.326;6.472;2023-04-15T10:39:46;6.05;;;2.30;;
52015;SDS011;38032;53.326;6.472;2023-04-15T10:42:13;4.78;;;2.10;;
52015;SDS011;38032;53.326;6.472;2023-04-15T10:44:41;6.13;;;2.22;;
52015;SDS011;38032;53.326;6.472;2023-04-15T10:47:09;4.22;;;2.13;;
52015;SDS011;38032;53.326;6.472;2023-04-15T10:49:43;5.40;;;2.15;;
52015;SDS011;38032;53.326;6.472;2023-04-15T10:52:10;5.80;;;2.35;;
52015;SDS011;38032;53.326;6.472;2023-04-15T10:54:37;6.10;;;2.15;;
52015;SDS011;38032;53.326;6.472;2023-04-15T10:59:30;4.22;;;2.10;;
52015;SDS011;38032;53.326;6.472;2023-04-15T11:01:59;4.10;;;2.33;;
52015;SDS011;38032;53.326;6.472;2023-04-15T11:07:33;4.78;;;1.83;;
52015;SDS011;38032;53.326;6.472;2023-04-15T11:12:45;6.80;;;2.15;;
52015;SDS011;38032;53.326;6.472;2023-04-15T11:15:31;7.70;;;1.95;;
52015;SDS011;38032;53.326;6.472;2023-04-15T11:18:07;6.78;;;2.30;;
52015;SDS011;38032;53.326;6.472;2023-04-15T11:20:45;4.65;;;2.00;;
52015;SDS011;38032;53.326;6.472;2023-04-15T11:23:14;5.35;;;2.10;;
52015;SDS011;38032;53.326;6.472;2023-04-15T11:25:42;4.57;;;2.20;;
52015;SDS011;38032;53.326;6.472;2023-04-15T11:28:08;5.20;;;2.28;;
52015;SDS011;38032;53.326;6.472;2023-04-15T11:30:36;4.80;;;2.00;;
52015;SDS011;38032;53.326;6.472;2023-04-15T11:33:04;6.00;;;2.05;;
52015;SDS011;38032;53.326;6.472;2023-04-15T11:35:34;5.35;;;1.95;;
52015;SDS011;38032;53.326;6.472;2023-04-15T11:38:03;6.45;;;1.92;;
52015;SDS011;38032;53.326;6.472;2023-04-15T11:40:32;4.30;;;2.10;;
52015;SDS011;38032;53.326;6.472;2023-04-15T11:43:10;4.30;;;1.88;;
52015;SDS011;38032;53.326;6.472;2023-04-15T11:45:47;8.13;;;2.50;;
52015;SDS011;38032;53.326;6.472;2023-04-15T11:48:19;4.22;;;2.10;;
52015;SDS011;38032;53.326;6.472;2023-04-15T11:50:52;4.20;;;2.13;;
52015;SDS011;38032;53.326;6.472;2023-04-15T11:53:19;9.25;;;2.17;;
52015;SDS011;38032;53.326;6.472;2023-04-15T11:55:47;6.32;;;1.98;;
52015;SDS011;38032;53.326;6.472;2023-04-15T11:58:19;6.22;;;2.47;;
52015;SDS011;38032;53.326;6.472;2023-04-15T12:00:49;4.72;;;2.10;;
52015;SDS011;38032;53.326;6.472;2023-04-15T12:11:18;7.85;;;2.50;;
52015;SDS011;38032;53.326;6.472;2023-04-15T12:13:46;11.30;;;2.15;;
52015;SDS011;38032;53.326;6.472;2023-04-15T12:16:17;7.13;;;2.42;;
52015;SDS011;38032;53.326;6.472;2023-04-15T12:18:45;6.70;;;2.10;;
52015;SDS011;38032;53.326;6.472;2023-04-15T12:21:12;6.88;;;2.25;;
52015;SDS011;38032;53.326;6.472;2023-04-15T12:23:46;5.47;;;1.90;;
52015;SDS011;38032;53.326;6.472;2023-04-15T12:26:15;8.57;;;2.28;;
52015;SDS011;38032;53.326;6.472;2023-04-15T12:28:42;9.45;;;2.17;;
52015;SDS011;38032;53.326;6.472;2023-04-15T12:31:08;6.85;;;2.10;;
52015;SDS011;38032;53.326;6.472;2023-04-15T12:33:35;3.28;;;1.50;;
52015;SDS011;38032;53.326;6.472;2023-04-15T12:36:02;6.65;;;2.10;;
52015;SDS011;38032;53.326;6.472;2023-04-15T12:38:29;6.93;;;2.17;;
52015;SDS011;38032;53.326;6.472;2023-04-15T12:40:56;6.63;;;2.00;;
52015;SDS011;38032;53.326;6.472;2023-04-15T12:43:23;5.72;;;2.08;;
52015;SDS011;38032;53.326;6.472;2023-04-15T12:45:49;8.05;;;2.13;;
52015;SDS011;38032;53.326;6.472;2023-04-15T12:48:15;8.43;;;2.10;;
52015;SDS011;38032;53.326;6.472;2023-04-15T12:50:41;7.85;;;2.00;;
52015;SDS011;38032;53.326;6.472;2023-04-15T12:53:07;7.95;;;2.05;;
52015;SDS011;38032;53.326;6.472;2023-04-15T12:55:33;5.20;;;2.03;;
52015;SDS011;38032;53.326;6.472;2023-04-15T12:57:59;5.25;;;1.80;;
52015;SDS011;38032;53.326;6.472;2023-04-15T13:00:25;8.15;;;2.20;;
52015;SDS011;38032;53.326;6.472;2023-04-15T13:02:51;9.13;;;2.22;;
52015;SDS011;38032;53.326;6.472;2023-04-15T13:05:16;7.03;;;2.30;;
52015;SDS011;38032;53.326;6.472;2023-04-15T13:07:43;4.88;;;1.90;;
52015;SDS011;38032;53.326;6.472;2023-04-15T13:10:09;5.13;;;1.77;;
52015;SDS011;38032;53.326;6.472;2023-04-15T13:12:35;6.20;;;2.17;;
52015;SDS011;38032;53.326;6.472;2023-04-15T13:15:01;4.70;;;2.10;;
52015;SDS011;38032;53.326;6.472;2023-04-15T13:17:29;7.10;;;1.92;;
52015;SDS011;38032;53.326;6.472;2023-04-15T13:19:55;5.93;;;2.40;;
52015;SDS011;38032;53.326;6.472;2023-04-15T13:22:21;9.60;;;2.38;;
52015;SDS011;38032;53.326;6.472;2023-04-15T13:24:47;5.10;;;1.98;;
52015;SDS011;38032;53.326;6.472;2023-04-15T13:27:13;5.95;;;2.28;;
52015;SDS011;38032;53.326;6.472;2023-04-15T13:29:39;8.38;;;2.20;;
52015;SDS011;38032;53.326;6.472;2023-04-15T13:32:05;8.50;;;2.78;;
52015;SDS011;38032;53.326;6.472;2023-04-15T13:34:31;7.07;;;2.20;;
52015;SDS011;38032;53.326;6.472;2023-04-15T13:36:57;4.55;;;2.00;;
52015;SDS011;38032;53.326;6.472;2023-04-15T13:39:23;5.32;;;2.00;;
52015;SDS011;38032;53.326;6.472;2023-04-15T13:41:49;5.60;;;2.05;;
52015;SDS011;38032;53.326;6.472;2023-04-15T13:44:14;9.95;;;2.25;;
52015;SDS011;38032;53.326;6.472;2023-04-15T13:46:41;5.85;;;1.90;;
52015;SDS011;38032;53.326;6.472;2023-04-15T13:49:06;6.25;;;2.10;;
52015;SDS011;38032;53.326;6.472;2023-04-15T13:51:32;8.63;;;2.30;;
52015;SDS011;38032;53.326;6.472;2023-04-15T13:54:01;6.57;;;2.05;;
52015;SDS011;38032;53.326;6.472;2023-04-15T13:56:27;9.85;;;2.22;;
52015;SDS011;38032;53.326;6.472;2023-04-15T13:58:53;8.50;;;2.22;;
52015;SDS011;38032;53.326;6.472;2023-04-15T14:01:23;9.20;;;2.05;;
52015;SDS011;38032;53.326;6.472;2023-04-15T14:03:49;5.00;;;1.90;;
52015;SDS011;38032;53.326;6.472;2023-04-15T14:06:15;6.40;;;1.95;;
52015;SDS011;38032;53.326;6.472;2023-04-15T14:08:41;6.60;;;2.30;;
52015;SDS011;38032;53.326;6.472;2023-04-15T14:11:07;9.15;;;2.35;;
52015;SDS011;38032;53.326;6.472;2023-04-15T14:13:33;8.95;;;2.40;;
52015;SDS011;38032;53.326;6.472;2023-04-15T14:15:59;7.80;;;2.28;;
52015;SDS011;38032;53.326;6.472;2023-04-15T14:18:25;6.32;;;2.40;;
52015;SDS011;38032;53.326;6.472;2023-04-15T14:20:51;6.88;;;1.92;;
52015;SDS011;38032;53.326;6.472;2023-04-15T14:23:17;8.38;;;2.92;;
52015;SDS011;38032;53.326;6.472;2023-04-15T14:25:43;6.15;;;2.25;;
52015;SDS011;38032;53.326;6.472;2023-04-15T14:28:10;5.63;;;2.50;;
52015;SDS011;38032;53.326;6.472;2023-04-15T14:30:36;6.38;;;2.35;;
52015;SDS011;38032;53.326;6.472;2023-04-15T14:33:02;6.60;;;2.25;;
52015;SDS011;38032;53.326;6.472;2023-04-15T14:35:28;9.77;;;2.50;;
52015;SDS011;38032;53.326;6.472;2023-04-15T14:37:54;7.75;;;2.70;;
52015;SDS011;38032;53.326;6.472;2023-04-15T14:40:20;8.02;;;2.38;;
52015;SDS011;38032;53.326;6.472;2023-04-15T14:42:47;7.70;;;2.42;;
52015;SDS011;38032;53.326;6.472;2023-04-15T14:45:13;8.65;;;2.67;;
52015;SDS011;38032;53.326;6.472;2023-04-15T14:47:39;9.35;;;2.90;;
52015;SDS011;38032;53.326;6.472;2023-04-15T14:50:05;10.45;;;2.60;;
52015;SDS011;38032;53.326;6.472;2023-04-15T14:52:31;11.05;;;3.00;;
52015;SDS011;38032;53.326;6.472;2023-04-15T14:55:04;8.90;;;2.50;;
52015;SDS011;38032;53.326;6.472;2023-04-15T14:57:30;10.52;;;2.60;;